createdAt,value
2023-05-18T00:01:56.720Z,28.52
2023-05-18T00:04:24.578Z,29.88
2023-05-18T00:06:57.019Z,30.75
2023-05-18T00:09:24.856Z,33.13
2023-05-18T00:11:51.959Z,31.38
2023-05-18T00:19:09.497Z,30.65
2023-05-18T00:21:36.298Z,24.50
2023-05-18T00:24:03.213Z,31.08
2023-05-18T00:28:55.294Z,36.05
2023-05-18T00:31:22.084Z,31.38
2023-05-18T00:33:48.785Z,26.38
2023-05-18T00:36:15.839Z,25.40
2023-05-18T00:38:42.556Z,31.85
2023-05-18T00:41:09.223Z,32.85
2023-05-18T00:43:36.197Z,28.77
2023-05-18T00:46:02.920Z,31.83
2023-05-18T00:48:29.688Z,28.38
2023-05-18T00:53:21.882Z,25.70
2023-05-18T00:55:48.753Z,29.77
2023-05-18T01:00:41.439Z,25.35
2023-05-18T01:03:11.172Z,27.33
2023-05-18T01:05:38.043Z,28.60
2023-05-18T01:08:05.123Z,30.75
2023-05-18T01:10:33.416Z,22.92
2023-05-18T01:13:02.925Z,30.75
2023-05-18T01:26:15.352Z,31.17
2023-05-18T01:31:13.146Z,32.28
2023-05-18T01:33:39.943Z,29.67
2023-05-18T01:36:06.828Z,35.05
2023-05-18T01:38:33.581Z,33.03
2023-05-18T01:41:03.650Z,35.63
2023-05-18T01:46:01.958Z,27.95
2023-05-18T01:48:28.875Z,31.17
2023-05-18T01:58:22.841Z,29.90
2023-05-18T02:00:50.217Z,31.70
2023-05-18T02:03:17.120Z,35.63
2023-05-18T02:05:43.917Z,29.95
2023-05-18T02:10:36.366Z,33.65
2023-05-18T02:13:03.219Z,29.92
2023-05-18T02:15:30.217Z,34.95
2023-05-18T02:17:58.586Z,26.73
2023-05-18T02:20:26.632Z,29.60
2023-05-18T02:22:54.594Z,30.77
2023-05-18T02:25:21.537Z,32.40
2023-05-18T02:27:48.208Z,27.60
2023-05-18T02:30:16.234Z,31.20
2023-05-18T02:32:43.109Z,33.00
2023-05-18T02:35:10.291Z,26.67
2023-05-18T02:40:10.325Z,29.52
2023-05-18T02:42:37.188Z,26.70
2023-05-18T02:47:38.852Z,27.02
2023-05-18T02:50:06.532Z,34.63
2023-05-18T02:57:25.017Z,36.70
2023-05-18T03:02:28.334Z,33.08
2023-05-18T03:04:57.630Z,30.60
2023-05-18T03:07:24.693Z,24.70
2023-05-18T03:12:16.902Z,29.90
2023-05-18T03:14:43.688Z,27.15
2023-05-18T03:17:10.908Z,30.63
2023-05-18T03:19:37.989Z,35.00
2023-05-18T03:22:06.042Z,33.35
2023-05-18T03:27:08.924Z,32.08
2023-05-18T03:29:35.884Z,25.15
2023-05-18T03:36:55.446Z,28.35
2023-05-18T03:41:48.379Z,25.90
2023-05-18T03:44:15.273Z,30.27
2023-05-18T03:46:42.341Z,27.38
2023-05-18T03:49:10.501Z,29.48
2023-05-18T03:51:41.432Z,29.85
2023-05-18T03:54:08.310Z,36.58
2023-05-18T03:56:36.073Z,32.05
2023-05-18T03:59:03.428Z,34.38
2023-05-18T04:06:26.163Z,35.15
2023-05-18T04:11:18.952Z,29.25
2023-05-18T04:13:45.809Z,30.95
2023-05-18T04:16:13.482Z,32.10
2023-05-18T04:18:41.076Z,32.75
2023-05-18T04:21:07.753Z,32.40
2023-05-18T04:23:39.347Z,36.83
2023-05-18T04:26:07.067Z,37.88
2023-05-18T04:28:34.016Z,34.72
2023-05-18T04:31:02.019Z,37.65
2023-05-18T04:33:30.019Z,34.35
2023-05-18T04:35:58.920Z,34.17
2023-05-18T04:40:52.068Z,38.17
2023-05-18T04:43:18.771Z,39.90
2023-05-18T04:48:17.919Z,38.00
2023-05-18T04:50:45.744Z,39.85
2023-05-18T04:53:12.552Z,39.47
2023-05-18T04:55:39.472Z,36.50
2023-05-18T04:58:10.880Z,43.80
2023-05-18T05:00:37.815Z,41.83
2023-05-18T05:03:04.853Z,39.88
2023-05-18T05:05:31.884Z,39.15
2023-05-18T05:07:59.134Z,36.95
2023-05-18T05:10:26.001Z,42.90
2023-05-18T05:12:52.826Z,39.65
2023-05-18T05:17:49.021Z,40.38
2023-05-18T05:20:16.226Z,36.58
2023-05-18T05:29:59.770Z,45.38
2023-05-18T05:32:26.861Z,44.90
2023-05-18T05:34:54.674Z,44.00
2023-05-18T05:37:21.777Z,47.15
2023-05-18T05:39:49.912Z,41.60
2023-05-18T05:42:18.236Z,42.88
2023-05-18T05:49:36.181Z,36.53
2023-05-18T05:52:03.892Z,42.55
2023-05-18T05:56:56.804Z,32.20
2023-05-18T05:59:23.872Z,41.28
2023-05-18T06:01:51.057Z,31.25
2023-05-18T06:04:18.036Z,36.90
2023-05-18T06:06:44.811Z,43.47
2023-05-18T06:11:37.004Z,41.15
2023-05-18T06:14:04.176Z,44.35
2023-05-18T06:18:56.480Z,37.65
2023-05-18T06:21:23.410Z,40.25
2023-05-18T06:23:50.178Z,43.00
2023-05-18T06:26:36.173Z,45.22
2023-05-18T06:29:03.110Z,42.55
2023-05-18T06:32:08.493Z,43.75
2023-05-18T06:37:22.211Z,39.58
2023-05-18T06:39:49.050Z,47.35
2023-05-18T06:42:15.898Z,41.60
2023-05-18T06:44:42.667Z,44.97
2023-05-18T06:47:11.499Z,47.13
2023-05-18T06:49:38.705Z,43.42
2023-05-18T06:52:06.794Z,45.67
2023-05-18T06:54:33.889Z,38.30
2023-05-18T06:57:00.665Z,33.88
2023-05-18T06:59:27.517Z,41.53
2023-05-18T07:01:54.370Z,41.63
2023-05-18T07:04:21.352Z,42.35
2023-05-18T07:06:48.776Z,38.10
2023-05-18T07:09:15.880Z,36.45
2023-05-18T07:11:42.552Z,38.92
2023-05-18T07:14:09.235Z,39.92
2023-05-18T07:16:36.054Z,44.95
2023-05-18T07:19:05.011Z,40.05
2023-05-18T07:21:31.966Z,37.95
2023-05-18T07:23:58.715Z,41.95
2023-05-18T07:26:26.232Z,37.90
2023-05-18T07:33:46.773Z,42.30
2023-05-18T07:36:13.739Z,38.08
2023-05-18T07:38:40.530Z,30.42
2023-05-18T07:41:10.248Z,31.90
2023-05-18T07:46:02.434Z,27.27
2023-05-18T07:48:29.270Z,22.90
2023-05-18T07:50:55.959Z,25.77
2023-05-18T07:53:22.811Z,25.73
2023-05-18T07:55:50.116Z,17.27
2023-05-18T07:58:16.900Z,21.35
2023-05-18T08:00:44.487Z,23.88
2023-05-18T08:03:11.263Z,19.27
2023-05-18T08:05:38.037Z,16.98
2023-05-18T08:08:06.848Z,20.02
2023-05-18T08:10:33.902Z,17.88
2023-05-18T08:13:00.682Z,18.80
2023-05-18T08:15:27.415Z,19.52
2023-05-18T08:17:55.302Z,17.52
2023-05-18T08:27:38.612Z,17.10
2023-05-18T08:30:05.731Z,21.83
2023-05-18T08:32:32.650Z,18.20
2023-05-18T08:37:29.655Z,14.52
2023-05-18T08:39:56.860Z,19.63
2023-05-18T08:42:31.924Z,17.40
2023-05-18T08:45:08.742Z,19.65
2023-05-18T08:47:36.854Z,18.42
2023-05-18T08:50:03.746Z,16.88
2023-05-18T08:52:33.309Z,15.32
2023-05-18T08:57:29.660Z,17.25
2023-05-18T08:59:56.971Z,16.42
2023-05-18T09:02:24.500Z,15.43
2023-05-18T09:04:52.071Z,14.85
2023-05-18T09:07:19.479Z,13.32
2023-05-18T09:09:46.800Z,15.48
2023-05-18T09:12:13.580Z,13.48
2023-05-18T09:14:41.973Z,14.82
2023-05-18T09:19:35.416Z,9.35
2023-05-18T09:22:02.225Z,12.23
2023-05-18T09:24:29.000Z,10.68
2023-05-18T09:26:55.965Z,12.27
2023-05-18T09:29:24.324Z,7.95
2023-05-18T09:34:19.462Z,12.93
2023-05-18T09:36:57.186Z,15.35
2023-05-18T09:39:23.942Z,9.23
2023-05-18T09:41:55.135Z,9.95
2023-05-18T09:49:23.270Z,14.13
2023-05-18T09:51:50.106Z,17.17
2023-05-18T09:54:16.851Z,12.95
2023-05-18T09:59:13.235Z,18.88
2023-05-18T10:01:58.542Z,14.68
2023-05-18T10:12:17.363Z,10.98
2023-05-18T10:14:44.663Z,9.88
2023-05-18T10:17:16.609Z,8.00
2023-05-18T10:22:09.959Z,5.57
2023-05-18T10:24:39.176Z,7.72
2023-05-18T10:29:34.154Z,7.38
2023-05-18T10:32:06.021Z,7.93
2023-05-18T10:34:33.966Z,8.85
2023-05-18T10:37:04.320Z,3.97
2023-05-18T10:39:34.361Z,3.13
2023-05-18T10:42:02.514Z,4.47
2023-05-18T10:44:29.508Z,4.60
2023-05-18T10:49:25.258Z,5.03
2023-05-18T10:51:53.374Z,7.28
2023-05-18T10:54:21.462Z,6.53
2023-05-18T10:59:14.397Z,8.85
2023-05-18T11:01:44.676Z,7.22
2023-05-18T11:04:11.898Z,6.40
2023-05-18T11:09:04.879Z,8.27
2023-05-18T11:11:50.369Z,8.45
2023-05-18T11:16:50.175Z,7.25
2023-05-18T11:19:17.092Z,11.57
2023-05-18T11:21:44.283Z,10.05
2023-05-18T11:29:26.241Z,6.70
2023-05-18T11:31:54.523Z,7.90
2023-05-18T11:34:41.083Z,7.55
2023-05-18T11:37:13.153Z,7.43
2023-05-18T11:39:51.613Z,8.30
2023-05-18T11:47:32.497Z,6.18
2023-05-18T11:50:14.935Z,11.88
2023-05-18T12:02:56.911Z,9.55
2023-05-18T12:05:23.965Z,7.93
2023-05-18T12:07:54.433Z,9.57
2023-05-18T12:10:21.550Z,8.52
2023-05-18T12:15:21.202Z,9.82
2023-05-18T12:17:48.850Z,9.35
2023-05-18T12:20:16.750Z,7.63
2023-05-18T12:22:44.548Z,7.22
2023-05-18T12:25:11.649Z,6.20
2023-05-18T12:27:40.075Z,7.95
2023-05-18T12:30:14.067Z,8.40
2023-05-18T12:40:12.353Z,7.35
2023-05-18T12:42:39.050Z,7.40
2023-05-18T12:45:07.006Z,10.50
2023-05-18T12:47:41.053Z,9.02
2023-05-18T12:50:08.153Z,9.60
2023-05-18T12:52:34.867Z,11.07
2023-05-18T12:57:31.209Z,13.27
2023-05-18T12:59:58.242Z,12.35
2023-05-18T13:02:28.525Z,8.38
2023-05-18T13:05:09.988Z,10.45
2023-05-18T13:07:40.990Z,12.02
2023-05-18T13:10:15.751Z,11.60
2023-05-18T13:12:43.389Z,10.30
2023-05-18T13:15:14.111Z,11.02
2023-05-18T13:17:48.809Z,7.93
2023-05-18T13:20:16.100Z,9.43
2023-05-18T13:22:44.463Z,7.60
2023-05-18T13:27:37.115Z,7.60
2023-05-18T13:30:03.999Z,6.68
2023-05-18T13:32:31.189Z,10.13
2023-05-18T13:34:58.152Z,10.75
2023-05-18T13:37:25.116Z,11.77
2023-05-18T13:39:52.023Z,10.82
2023-05-18T13:42:21.398Z,8.02
2023-05-18T13:44:48.366Z,6.68
2023-05-18T13:47:15.039Z,10.38
2023-05-18T13:49:41.725Z,6.57
2023-05-18T13:52:08.516Z,7.00
2023-05-18T13:54:35.295Z,10.25
2023-05-18T13:59:27.980Z,10.30
2023-05-18T14:01:54.819Z,10.40
2023-05-18T14:04:21.507Z,10.75
2023-05-18T14:06:48.357Z,14.43
2023-05-18T14:09:17.371Z,11.10
2023-05-18T14:11:44.028Z,12.07
2023-05-18T14:14:11.314Z,11.70
2023-05-18T14:16:38.272Z,11.63
2023-05-18T14:19:05.104Z,4.10
2023-05-18T14:21:32.075Z,15.02
2023-05-18T14:24:03.892Z,14.05
2023-05-18T14:26:30.803Z,13.82
2023-05-18T14:28:57.602Z,6.68
2023-05-18T14:31:24.298Z,12.75
2023-05-18T14:33:51.304Z,14.75
2023-05-18T14:36:19.963Z,9.50
2023-05-18T14:38:48.612Z,12.02
2023-05-18T14:41:15.414Z,23.30
2023-05-18T14:43:42.073Z,12.93
2023-05-18T14:46:09.186Z,8.27
2023-05-18T14:48:36.109Z,10.65
2023-05-18T14:51:03.043Z,8.88
2023-05-18T14:53:29.867Z,10.38
2023-05-18T14:58:22.535Z,14.50
2023-05-18T15:00:49.317Z,14.57
2023-05-18T15:08:09.862Z,11.57
2023-05-18T15:10:36.630Z,11.13
2023-05-18T15:13:03.430Z,8.95
2023-05-18T15:15:30.073Z,10.70
2023-05-18T15:17:56.934Z,19.65
2023-05-18T15:20:26.972Z,13.60
2023-05-18T15:22:53.737Z,14.18
2023-05-18T15:25:21.078Z,13.68
2023-05-18T15:27:49.084Z,11.07
2023-05-18T15:30:15.847Z,11.00
2023-05-18T15:32:45.784Z,7.90
2023-05-18T15:35:12.506Z,7.95
2023-05-18T15:37:39.233Z,13.18
2023-05-18T15:47:26.300Z,11.63
2023-05-18T15:49:53.768Z,11.15
2023-05-18T15:52:21.415Z,13.75
2023-05-18T15:54:48.098Z,13.07
2023-05-18T15:57:14.903Z,13.63
2023-05-18T15:59:41.557Z,14.20
2023-05-18T16:11:50.366Z,10.10
2023-05-18T16:14:17.091Z,10.20
2023-05-18T16:16:43.830Z,12.40
2023-05-18T16:19:10.760Z,11.18
2023-05-18T16:21:37.527Z,13.43
2023-05-18T16:28:56.069Z,13.77
2023-05-18T16:31:22.864Z,7.45
2023-05-18T16:33:49.611Z,10.55
2023-05-18T16:36:16.534Z,14.15
2023-05-18T16:41:08.838Z,11.98
2023-05-18T16:43:35.921Z,15.88
2023-05-18T16:46:02.704Z,13.77
2023-05-18T16:48:29.560Z,8.55
2023-05-18T16:51:02.369Z,12.60
2023-05-18T16:53:29.059Z,12.30
2023-05-18T16:55:55.839Z,11.13
2023-05-18T16:58:22.448Z,10.27
2023-05-18T17:03:17.462Z,8.10
2023-05-18T17:05:44.400Z,8.57
2023-05-18T17:08:11.290Z,4.57
2023-05-18T17:10:38.186Z,11.52
2023-05-18T17:13:04.982Z,11.88
2023-05-18T17:15:32.005Z,9.45
2023-05-18T17:20:24.732Z,10.07
2023-05-18T17:22:51.477Z,11.23
2023-05-18T17:27:44.529Z,11.00
2023-05-18T17:30:11.687Z,7.65
2023-05-18T17:32:41.407Z,5.88
2023-05-18T17:40:02.424Z,6.22
2023-05-18T17:42:30.246Z,10.90
2023-05-18T17:44:56.922Z,12.32
2023-05-18T17:49:50.030Z,8.00
2023-05-18T17:52:17.279Z,7.93
2023-05-18T17:54:43.996Z,13.05
2023-05-18T17:57:11.026Z,10.60
2023-05-18T17:59:37.757Z,15.65
2023-05-18T18:02:04.617Z,12.23
2023-05-18T18:04:31.263Z,6.93
2023-05-18T18:06:58.716Z,9.55
2023-05-18T18:11:51.010Z,7.82
2023-05-18T18:14:17.863Z,6.68
2023-05-18T18:21:36.127Z,8.38
2023-05-18T18:28:58.142Z,13.82
2023-05-18T18:33:53.147Z,9.30
2023-05-18T18:36:19.919Z,7.50
2023-05-18T18:38:47.287Z,8.77
2023-05-18T18:41:17.534Z,5.13
2023-05-18T18:43:44.430Z,10.52
2023-05-18T18:46:11.227Z,8.88
2023-05-18T18:48:40.858Z,10.98
2023-05-18T18:51:07.632Z,7.93
2023-05-18T18:55:59.846Z,6.97
2023-05-18T18:58:26.748Z,8.77
2023-05-18T19:00:53.541Z,8.95
2023-05-18T19:03:21.923Z,14.00
2023-05-18T19:05:49.316Z,8.82
2023-05-18T19:10:42.422Z,9.75
2023-05-18T19:13:09.248Z,7.10
2023-05-18T19:18:02.694Z,8.18
2023-05-18T19:20:29.600Z,8.90
2023-05-18T19:27:56.881Z,7.35
2023-05-18T19:30:23.804Z,9.63
2023-05-18T19:32:51.194Z,11.18
2023-05-18T19:35:20.001Z,9.30
2023-05-18T19:37:47.116Z,11.27
2023-05-18T19:40:16.901Z,8.80
2023-05-18T19:52:29.820Z,11.98
2023-05-18T19:54:57.739Z,10.07
2023-05-18T20:09:41.636Z,13.23
2023-05-18T20:12:12.980Z,12.25
2023-05-18T20:19:33.610Z,12.15
2023-05-18T20:22:00.742Z,14.68
2023-05-18T20:24:27.531Z,16.27
2023-05-18T20:26:54.277Z,11.13
2023-05-18T20:29:21.006Z,15.05
2023-05-18T20:31:47.848Z,13.13
2023-05-18T20:34:14.628Z,11.35
2023-05-18T20:36:41.361Z,10.82
2023-05-18T20:44:02.160Z,12.90
2023-05-18T20:46:31.179Z,14.38
2023-05-18T20:48:58.044Z,12.15
2023-05-18T20:51:24.888Z,9.70
2023-05-18T20:53:51.861Z,10.02
2023-05-18T20:58:58.224Z,12.65
2023-05-18T21:01:28.802Z,11.60
2023-05-18T21:06:24.996Z,15.20
2023-05-18T21:08:52.622Z,14.55
2023-05-18T21:16:10.887Z,12.23
2023-05-18T21:18:37.909Z,10.57
2023-05-18T21:23:30.321Z,8.85
2023-05-18T21:25:57.134Z,13.30
2023-05-18T21:30:52.391Z,12.52
2023-05-18T21:33:19.416Z,7.10
2023-05-18T21:47:53.387Z,10.02
2023-05-18T21:50:20.145Z,13.90
2023-05-18T21:52:47.000Z,15.45
2023-05-18T21:55:13.631Z,11.10
2023-05-18T21:57:40.606Z,10.85
2023-05-18T22:00:07.670Z,12.18
2023-05-18T22:05:05.237Z,10.68
2023-05-18T22:07:31.940Z,13.65
2023-05-18T22:09:58.580Z,12.75
2023-05-18T22:12:25.275Z,8.40
2023-05-18T22:14:52.112Z,15.18
2023-05-18T22:17:18.849Z,15.43
2023-05-18T22:22:16.511Z,19.73
2023-05-18T22:24:49.944Z,11.20
2023-05-18T22:29:42.094Z,13.85
2023-05-18T22:32:08.866Z,16.45
2023-05-18T22:34:35.650Z,16.27
2023-05-18T22:37:02.421Z,12.90
2023-05-18T22:39:29.097Z,15.15
2023-05-18T22:41:56.098Z,17.88
2023-05-18T22:44:22.852Z,15.98
2023-05-18T22:46:49.639Z,14.85
2023-05-18T22:49:16.880Z,18.55
2023-05-18T22:51:43.637Z,19.70
2023-05-18T22:54:10.320Z,18.50
2023-05-18T22:56:36.985Z,25.27
2023-05-18T22:59:03.749Z,16.23
2023-05-18T23:01:31.315Z,14.52
2023-05-18T23:08:48.835Z,24.42
2023-05-18T23:13:43.820Z,16.52
2023-05-18T23:16:10.698Z,16.80
2023-05-18T23:18:38.817Z,14.45
2023-05-18T23:23:30.979Z,20.17
2023-05-18T23:25:57.760Z,15.77
2023-05-18T23:30:50.056Z,20.92
2023-05-18T23:33:17.127Z,17.98
2023-05-18T23:40:45.117Z,18.80
2023-05-18T23:43:12.101Z,23.48
2023-05-18T23:45:39.013Z,18.10
2023-05-18T23:48:06.026Z,16.15
2023-05-18T23:50:33.060Z,18.00
2023-05-18T23:53:01.276Z,18.63
2023-05-18T23:55:28.043Z,17.52
2023-05-18T23:57:56.187Z,22.60
